sensor_id;sensor_type;location;lat;lon;timestamp;pressure;altitude;pressure_sealevel;temperature;humidity
20424;BME280;10371;49.042;8.002;2023-09-19T00:00:58;99447.16;;;15.96;100.00
20424;BME280;10371;49.042;8.002;2023-09-19T00:01:58;99459.63;;;16.02;100.00
20424;BME280;10371;49.042;8.002;2023-09-19T00:02:58;99454.06;;;15.97;100.00
20424;BME280;10371;49.042;8.002;2023-09-19T00:04:02;99455.69;;;15.98;100.00
20424;BME280;10371;49.042;8.002;2023-09-19T00:05:03;99454.06;;;15.97;100.00
20424;BME280;10371;49.042;8.002;2023-09-19T00:06:04;99462.28;;;16.02;100.00
20424;BME280;10371;49.042;8.002;2023-09-19T00:07:05;99451.75;;;16.02;100.00
20424;BME280;10371;49.042;8.002;2023-09-19T00:08:06;99455.53;;;16.08;100.00
20424;BME280;10371;49.042;8.002;2023-09-19T00:09:06;99453.72;;;16.08;100.00
20424;BME280;10371;49.042;8.002;2023-09-19T00:10:10;99454.19;;;16.12;100.00
20424;BME280;10371;49.042;8.002;2023-09-19T00:11:11;99455.00;;;16.13;100.00
20424;BME280;10371;49.042;8.002;2023-09-19T00:12:12;99456.47;;;16.15;100.00
20424;BME280;10371;49.042;8.002;2023-09-19T00:13:13;99448.78;;;16.14;100.00
20424;BME280;10371;49.042;8.002;2023-09-19T00:14:13;99447.78;;;16.15;100.00
20424;BME280;10371;49.042;8.002;2023-09-19T00:15:14;99444.50;;;16.13;100.00
20424;BME280;10371;49.042;8.002;2023-09-19T00:16:17;99445.16;;;16.15;100.00
20424;BME280;10371;49.042;8.002;2023-09-19T00:17:19;99440.41;;;16.10;100.00
20424;BME280;10371;49.042;8.002;2023-09-19T00:18:20;99451.56;;;16.12;100.00
20424;BME280;10371;49.042;8.002;2023-09-19T00:19:29;99442.56;;;16.06;100.00
20424;BME280;10371;49.042;8.002;2023-09-19T00:20:29;99447.47;;;16.09;100.00
20424;BME280;10371;49.042;8.002;2023-09-19T00:21:31;99446.19;;;16.05;100.00
20424;BME280;10371;49.042;8.002;2023-09-19T00:22:32;99447.16;;;16.04;100.00
20424;BME280;10371;49.042;8.002;2023-09-19T00:23:32;99449.13;;;16.02;100.00
20424;BME280;10371;49.042;8.002;2023-09-19T00:24:33;99453.72;;;16.00;100.00
20424;BME280;10371;49.042;8.002;2023-09-19T00:25:33;99448.81;;;15.97;100.00
20424;BME280;10371;49.042;8.002;2023-09-19T00:26:35;99456.03;;;15.95;100.00
20424;BME280;10371;49.042;8.002;2023-09-19T00:27:36;99461.47;;;15.94;100.00
20424;BME280;10371;49.042;8.002;2023-09-19T00:28:41;99459.00;;;15.92;100.00
20424;BME280;10371;49.042;8.002;2023-09-19T00:29:41;99466.88;;;15.92;100.00
20424;BME280;10371;49.042;8.002;2023-09-19T00:30:46;99464.41;;;15.91;100.00
20424;BME280;10371;49.042;8.002;2023-09-19T00:31:52;99468.50;;;15.93;100.00
20424;BME280;10371;49.042;8.002;2023-09-19T00:32:52;99467.34;;;15.96;100.00
20424;BME280;10371;49.042;8.002;2023-09-19T00:33:55;99467.19;;;15.97;100.00
20424;BME280;10371;49.042;8.002;2023-09-19T00:34:59;99470.97;;;15.95;100.00
20424;BME280;10371;49.042;8.002;2023-09-19T00:36:00;99466.84;;;16.00;100.00
20424;BME280;10371;49.042;8.002;2023-09-19T00:37:04;99463.91;;;16.03;100.00
20424;BME280;10371;49.042;8.002;2023-09-19T00:38:04;99470.63;;;16.06;100.00
20424;BME280;10371;49.042;8.002;2023-09-19T00:39:06;99461.28;;;16.03;100.00
20424;BME280;10371;49.042;8.002;2023-09-19T00:40:09;99469.47;;;16.08;100.00
20424;BME280;10371;49.042;8.002;2023-09-19T00:41:15;99472.09;;;16.08;100.00
20424;BME280;10371;49.042;8.002;2023-09-19T00:42:21;99480.78;;;16.09;100.00
20424;BME280;10371;49.042;8.002;2023-09-19T00:43:22;99473.91;;;16.08;100.00
20424;BME280;10371;49.042;8.002;2023-09-19T00:44:24;99473.72;;;16.09;100.00
20424;BME280;10371;49.042;8.002;2023-09-19T00:45:24;99476.53;;;16.08;100.00
20424;BME280;10371;49.042;8.002;2023-09-19T00:46:24;99484.22;;;16.09;100.00
20424;BME280;10371;49.042;8.002;2023-09-19T00:47:27;99471.91;;;16.10;100.00
20424;BME280;10371;49.042;8.002;2023-09-19T00:48:28;99476.34;;;16.09;100.00
20424;BME280;10371;49.042;8.002;2023-09-19T00:49:29;99473.91;;;16.08;100.00
20424;BME280;10371;49.042;8.002;2023-09-19T00:50:31;99474.88;;;16.07;100.00
20424;BME280;10371;49.042;8.002;2023-09-19T00:51:32;99481.78;;;16.08;100.00
20424;BME280;10371;49.042;8.002;2023-09-19T00:52:34;99478.34;;;15.99;100.00
20424;BME280;10371;49.042;8.002;2023-09-19T00:53:37;99478.03;;;16.02;100.00
20424;BME280;10371;49.042;8.002;2023-09-19T00:54:38;99482.47;;;16.02;100.00
20424;BME280;10371;49.042;8.002;2023-09-19T00:55:39;99489.16;;;16.04;100.00
20424;BME280;10371;49.042;8.002;2023-09-19T00:56:45;99483.09;;;16.04;100.00
20424;BME280;10371;49.042;8.002;2023-09-19T00:57:46;99481.63;;;16.01;100.00
20424;BME280;10371;49.042;8.002;2023-09-19T00:58:47;99479.66;;;16.03;100.00
20424;BME280;10371;49.042;8.002;2023-09-19T00:59:50;99482.13;;;16.05;100.00
20424;BME280;10371;49.042;8.002;2023-09-19T01:00:51;99485.72;;;16.04;100.00
20424;BME280;10371;49.042;8.002;2023-09-19T01:01:54;99480.31;;;15.97;100.00
20424;BME280;10371;49.042;8.002;2023-09-19T01:02:56;99481.63;;;16.01;100.00
20424;BME280;10371;49.042;8.002;2023-09-19T01:03:56;99480.00;;;16.00;100.00
20424;BME280;10371;49.042;8.002;2023-09-19T01:04:57;99484.56;;;15.98;100.00
20424;BME280;10371;49.042;8.002;2023-09-19T01:05:59;99481.63;;;16.01;100.00
20424;BME280;10371;49.042;8.002;2023-09-19T01:07:00;99484.91;;;16.03;100.00
20424;BME280;10371;49.042;8.002;2023-09-19T01:08:01;99485.72;;;16.04;100.00
20424;BME280;10371;49.042;8.002;2023-09-19T01:09:01;99480.47;;;16.04;100.00
20424;BME280;10371;49.042;8.002;2023-09-19T01:10:04;99483.91;;;16.04;100.00
20424;BME280;10371;49.042;8.002;2023-09-19T01:11:13;99490.47;;;16.08;100.00
20424;BME280;10371;49.042;8.002;2023-09-19T01:12:19;99482.25;;;16.12;100.00
20424;BME280;10371;49.042;8.002;2023-09-19T01:13:55;99484.53;;;16.15;100.00
20424;BME280;10371;49.042;8.002;2023-09-19T01:15:05;99485.88;;;16.19;100.00
20424;BME280;10371;49.042;8.002;2023-09-19T01:16:28;99491.94;;;16.19;100.00
20424;BME280;10371;49.042;8.002;2023-09-19T01:17:42;99490.94;;;16.20;100.00
20424;BME280;10371;49.042;8.002;2023-09-19T01:19:25;99498.00;;;16.20;100.00
20424;BME280;10371;49.042;8.002;2023-09-19T01:22:46;99496.50;;;16.25;100.00
20424;BME280;10371;49.042;8.002;2023-09-19T01:28:10;99500.13;;;16.24;100.00
20424;BME280;10371;49.042;8.002;2023-09-19T01:29:34;99496.97;;;16.29;100.00
20424;BME280;10371;49.042;8.002;2023-09-19T01:30:43;99491.56;;;16.30;100.00
20424;BME280;10371;49.042;8.002;2023-09-19T01:31:44;99492.72;;;16.28;100.00
20424;BME280;10371;49.042;8.002;2023-09-19T01:32:45;99492.22;;;16.33;100.00
20424;BME280;10371;49.042;8.002;2023-09-19T01:34:03;99488.75;;;16.32;100.00
20424;BME280;10371;49.042;8.002;2023-09-19T01:35:08;99498.94;;;16.35;100.00
20424;BME280;10371;49.042;8.002;2023-09-19T01:36:12;99494.69;;;16.34;100.00
20424;BME280;10371;49.042;8.002;2023-09-19T01:37:13;99491.69;;;16.37;100.00
20424;BME280;10371;49.042;8.002;2023-09-19T01:38:14;99495.16;;;16.38;100.00
20424;BME280;10371;49.042;8.002;2023-09-19T01:39:15;99494.66;;;16.42;100.00
20424;BME280;10371;49.042;8.002;2023-09-19T01:40:18;99498.75;;;16.45;100.00
20424;BME280;10371;49.042;8.002;2023-09-19T01:41:33;99497.94;;;16.44;100.00
20424;BME280;10371;49.042;8.002;2023-09-19T01:42:58;99491.69;;;16.45;100.00
20424;BME280;10371;49.042;8.002;2023-09-19T01:44:01;99489.25;;;16.44;100.00
20424;BME280;10371;49.042;8.002;2023-09-19T01:46:34;99497.59;;;16.47;100.00
20424;BME280;10371;49.042;8.002;2023-09-19T01:47:40;99490.69;;;16.46;100.00
20424;BME280;10371;49.042;8.002;2023-09-19T01:48:53;99496.91;;;16.53;100.00
20424;BME280;10371;49.042;8.002;2023-09-19T01:50:24;99507.41;;;16.53;100.00
20424;BME280;10371;49.042;8.002;2023-09-19T01:53:23;99503.78;;;16.54;100.00
20424;BME280;10371;49.042;8.002;2023-09-19T01:54:27;99509.19;;;16.61;100.00
20424;BME280;10371;49.042;8.002;2023-09-19T01:55:34;99502.78;;;16.64;100.00
20424;BME280;10371;49.042;8.002;2023-09-19T01:56:42;99513.31;;;16.64;100.00
20424;BME280;10371;49.042;8.002;2023-09-19T01:58:01;99511.66;;;16.63;100.00
20424;BME280;10371;49.042;8.002;2023-09-19T01:59:08;99514.47;;;16.61;100.00
20424;BME280;10371;49.042;8.002;2023-09-19T02:00:11;99511.66;;;16.63;100.00
20424;BME280;10371;49.042;8.002;2023-09-19T02:01:18;99516.91;;;16.63;100.00
20424;BME280;10371;49.042;8.002;2023-09-19T02:02:21;99519.53;;;16.63;100.00
20424;BME280;10371;49.042;8.002;2023-09-19T02:03:23;99517.09;;;16.61;100.00
20424;BME280;10371;49.042;8.002;2023-09-19T02:04:24;99519.84;;;16.68;100.00
20424;BME280;10371;49.042;8.002;2023-09-19T02:05:25;99516.41;;;16.67;100.00
20424;BME280;10371;49.042;8.002;2023-09-19T02:06:26;99517.22;;;16.68;100.00
20424;BME280;10371;49.042;8.002;2023-09-19T02:07:27;99523.28;;;16.68;100.00
20424;BME280;10371;49.042;8.002;2023-09-19T02:08:27;99522.16;;;16.63;100.00
20424;BME280;10371;49.042;8.002;2023-09-19T02:09:27;99520.38;;;16.63;100.00
20424;BME280;10371;49.042;8.002;2023-09-19T02:10:28;99516.75;;;16.64;100.00
20424;BME280;10371;49.042;8.002;2023-09-19T02:11:28;99522.84;;;16.57;100.00
20424;BME280;10371;49.042;8.002;2023-09-19T02:12:28;99523.31;;;16.60;100.00
20424;BME280;10371;49.042;8.002;2023-09-19T02:13:30;99519.56;;;16.54;100.00
20424;BME280;10371;49.042;8.002;2023-09-19T02:14:31;99525.81;;;16.53;100.00
20424;BME280;10371;49.042;8.002;2023-09-19T02:15:32;99517.94;;;16.53;100.00
20424;BME280;10371;49.042;8.002;2023-09-19T02:16:34;99517.94;;;16.53;100.00
20424;BME280;10371;49.042;8.002;2023-09-19T02:17:35;99526.81;;;16.52;100.00
20424;BME280;10371;49.042;8.002;2023-09-19T02:18:35;99525.66;;;16.55;100.00
20424;BME280;10371;49.042;8.002;2023-09-19T02:19:35;99515.97;;;16.56;100.00
20424;BME280;10371;49.042;8.002;2023-09-19T02:20:39;99518.06;;;16.60;100.00
20424;BME280;10371;49.042;8.002;2023-09-19T02:21:39;99522.16;;;16.63;100.00
20424;BME280;10371;49.042;8.002;2023-09-19T02:22:43;99526.59;;;16.62;100.00
20424;BME280;10371;49.042;8.002;2023-09-19T02:23:45;99529.41;;;16.61;100.00
20424;BME280;10371;49.042;8.002;2023-09-19T02:24:47;99534.97;;;16.66;100.00
20424;BME280;10371;49.042;8.002;2023-09-19T02:25:54;99529.88;;;16.64;100.00
20424;BME280;10371;49.042;8.002;2023-09-19T02:26:57;99535.97;;;16.65;100.00
20424;BME280;10371;49.042;8.002;2023-09-19T02:27:59;99535.31;;;16.63;100.00
20424;BME280;10371;49.042;8.002;2023-09-19T02:29:01;99535.31;;;16.63;100.00
20424;BME280;10371;49.042;8.002;2023-09-19T02:30:05;99539.28;;;16.59;100.00
20424;BME280;10371;49.042;8.002;2023-09-19T02:31:06;99532.38;;;16.58;100.00
20424;BME280;10371;49.042;8.002;2023-09-19T02:32:06;99543.88;;;16.57;100.00
20424;BME280;10371;49.042;8.002;2023-09-19T02:33:07;99535.16;;;16.56;100.00
20424;BME280;10371;49.042;8.002;2023-09-19T02:34:08;99533.00;;;16.60;100.00
20424;BME280;10371;49.042;8.002;2023-09-19T02:35:08;99543.19;;;16.63;100.00
20424;BME280;10371;49.042;8.002;2023-09-19T02:36:11;99542.69;;;16.67;100.00
20424;BME280;10371;49.042;8.002;2023-09-19T02:37:11;99544.16;;;16.70;100.00
20424;BME280;10371;49.042;8.002;2023-09-19T02:38:13;99541.53;;;16.70;100.00
20424;BME280;10371;49.042;8.002;2023-09-19T02:39:14;99536.63;;;16.67;100.00
20424;BME280;10371;49.042;8.002;2023-09-19T02:40:15;99542.03;;;16.65;100.00
20424;BME280;10371;49.042;8.002;2023-09-19T02:41:26;99543.84;;;16.65;100.00
20424;BME280;10371;49.042;8.002;2023-09-19T02:42:26;99538.78;;;16.63;100.00
20424;BME280;10371;49.042;8.002;2023-09-19T02:43:27;99548.63;;;16.61;100.00
20424;BME280;10371;49.042;8.002;2023-09-19T02:44:27;99546.00;;;16.61;100.00
20424;BME280;10371;49.042;8.002;2023-09-19T02:45:28;99545.53;;;16.58;100.00
20424;BME280;10371;49.042;8.002;2023-09-19T02:46:29;99540.59;;;16.54;100.00
20424;BME280;10371;49.042;8.002;2023-09-19T02:47:29;99544.69;;;16.57;100.00
20424;BME280;10371;49.042;8.002;2023-09-19T02:48:30;99544.34;;;16.60;100.00
20424;BME280;10371;49.042;8.002;2023-09-19T02:49:34;99543.53;;;16.60;100.00
20424;BME280;10371;49.042;8.002;2023-09-19T02:50:35;99548.97;;;16.58;100.00
20424;BME280;10371;49.042;8.002;2023-09-19T02:51:35;99554.03;;;16.60;100.00
20424;BME280;10371;49.042;8.002;2023-09-19T02:52:35;99556.66;;;16.60;100.00
20424;BME280;10371;49.042;8.002;2023-09-19T02:53:36;99555.19;;;16.57;100.00
20424;BME280;10371;49.042;8.002;2023-09-19T02:54:37;99551.09;;;16.54;100.00
20424;BME280;10371;49.042;8.002;2023-09-19T02:55:37;99561.44;;;16.56;100.00
20424;BME280;10371;49.042;8.002;2023-09-19T02:56:38;99553.06;;;16.61;100.00
20424;BME280;10371;49.042;8.002;2023-09-19T02:57:38;99552.72;;;16.64;100.00
20424;BME280;10371;49.042;8.002;2023-09-19T02:58:41;99549.28;;;16.63;100.00
20424;BME280;10371;49.042;8.002;2023-09-19T02:59:42;99543.69;;;16.66;100.00
20424;BME280;10371;49.042;8.002;2023-09-19T03:00:44;99547.47;;;16.64;100.00
20424;BME280;10371;49.042;8.002;2023-09-19T03:01:47;99552.72;;;16.64;100.00
20424;BME280;10371;49.042;8.002;2023-09-19T03:02:53;99545.19;;;16.61;100.00
20424;BME280;10371;49.042;8.002;2023-09-19T03:03:54;99549.44;;;16.62;100.00
20424;BME280;10371;49.042;8.002;2023-09-19T03:04:54;99543.84;;;16.65;100.00
20424;BME280;10371;49.042;8.002;2023-09-19T03:05:56;99542.03;;;16.65;100.00
20424;BME280;10371;49.042;8.002;2023-09-19T03:06:58;99544.50;;;16.67;100.00
20424;BME280;10371;49.042;8.002;2023-09-19T03:08:01;99536.97;;;16.64;100.00
20424;BME280;10371;49.042;8.002;2023-09-19T03:09:01;99546.31;;;16.66;100.00
20424;BME280;10371;49.042;8.002;2023-09-19T03:10:03;99553.19;;;16.67;100.00
20424;BME280;10371;49.042;8.002;2023-09-19T03:11:06;99546.66;;;16.63;100.00
20424;BME280;10371;49.042;8.002;2023-09-19T03:12:07;99549.28;;;16.63;100.00
20424;BME280;10371;49.042;8.002;2023-09-19T03:13:08;99554.69;;;16.62;100.00
20424;BME280;10371;49.042;8.002;2023-09-19T03:14:09;99553.69;;;16.63;100.00
20424;BME280;10371;49.042;8.002;2023-09-19T03:15:11;99556.97;;;16.65;100.00
20424;BME280;10371;49.042;8.002;2023-09-19T03:16:11;99553.34;;;16.66;100.00
20424;BME280;10371;49.042;8.002;2023-09-19T03:17:15;99554.00;;;16.68;100.00
20424;BME280;10371;49.042;8.002;2023-09-19T03:18:15;99549.41;;;16.70;100.00
20424;BME280;10371;49.042;8.002;2023-09-19T03:19:15;99557.13;;;16.71;100.00
20424;BME280;10371;49.042;8.002;2023-09-19T03:20:16;99557.31;;;16.70;100.00
20424;BME280;10371;49.042;8.002;2023-09-19T03:21:21;99555.34;;;16.72;100.00
20424;BME280;10371;49.042;8.002;2023-09-19T03:22:21;99552.69;;;16.72;100.00
20424;BME280;10371;49.042;8.002;2023-09-19T03:23:22;99557.13;;;16.71;100.00
20424;BME280;10371;49.042;8.002;2023-09-19T03:24:23;99559.59;;;16.73;100.00
20424;BME280;10371;49.042;8.002;2023-09-19T03:25:23;99550.69;;;16.74;100.00
20424;BME280;10371;49.042;8.002;2023-09-19T03:26:24;99555.34;;;16.72;100.00
20424;BME280;10371;49.042;8.002;2023-09-19T03:27:27;99556.81;;;16.74;100.00
20424;BME280;10371;49.042;8.002;2023-09-19T03:28:27;99555.13;;;16.73;100.00
20424;BME280;10371;49.042;8.002;2023-09-19T03:29:28;99555.13;;;16.73;100.00
20424;BME280;10371;49.042;8.002;2023-09-19T03:30:28;99560.41;;;16.73;100.00
20424;BME280;10371;49.042;8.002;2023-09-19T03:31:28;99548.75;;;16.68;100.00
20424;BME280;10371;49.042;8.002;2023-09-19T03:32:28;99561.22;;;16.74;100.00
20424;BME280;10371;49.042;8.002;2023-09-19T03:33:29;99558.78;;;16.72;100.00
20424;BME280;10371;49.042;8.002;2023-09-19T03:34:31;99555.47;;;16.70;100.00
20424;BME280;10371;49.042;8.002;2023-09-19T03:35:32;99572.41;;;16.68;100.00
20424;BME280;10371;49.042;8.002;2023-09-19T03:36:32;99565.88;;;16.64;100.00
20424;BME280;10371;49.042;8.002;2023-09-19T03:37:32;99563.41;;;16.62;100.00
20424;BME280;10371;49.042;8.002;2023-09-19T03:38:34;99568.66;;;16.62;100.00
20424;BME280;10371;49.042;8.002;2023-09-19T03:39:34;99569.81;;;16.60;100.00
20424;BME280;10371;49.042;8.002;2023-09-19T03:40:35;99565.38;;;16.60;100.00
20424;BME280;10371;49.042;8.002;2023-09-19T03:41:37;99574.72;;;16.63;100.00
20424;BME280;10371;49.042;8.002;2023-09-19T03:42:39;99569.81;;;16.60;100.00
20424;BME280;10371;49.042;8.002;2023-09-19T03:43:40;99564.56;;;16.60;100.00
20424;BME280;10371;49.042;8.002;2023-09-19T03:44:40;99566.56;;;16.58;100.00
20424;BME280;10371;49.042;8.002;2023-09-19T03:45:40;99567.38;;;16.50;100.00
20424;BME280;10371;49.042;8.002;2023-09-19T03:46:41;99566.38;;;16.51;100.00
20424;BME280;10371;49.042;8.002;2023-09-19T03:47:41;99576.25;;;16.49;100.00
20424;BME280;10371;49.042;8.002;2023-09-19T03:48:41;99575.75;;;16.45;100.00
20424;BME280;10371;49.042;8.002;2023-09-19T03:49:42;99568.69;;;16.46;100.00
20424;BME280;10371;49.042;8.002;2023-09-19T03:50:43;99575.94;;;16.44;100.00
20424;BME280;10371;49.042;8.002;2023-09-19T03:51:44;99572.66;;;16.42;100.00
20424;BME280;10371;49.042;8.002;2023-09-19T03:52:44;99571.84;;;16.41;100.00
20424;BME280;10371;49.042;8.002;2023-09-19T03:53:45;99568.72;;;16.38;100.00
20424;BME280;10371;49.042;8.002;2023-09-19T03:54:45;99577.91;;;16.42;100.00
20424;BME280;10371;49.042;8.002;2023-09-19T03:55:45;99576.25;;;16.41;100.00
20424;BME280;10371;49.042;8.002;2023-09-19T03:56:46;99576.44;;;16.39;100.00
20424;BME280;10371;49.042;8.002;2023-09-19T03:57:49;99578.25;;;16.39;100.00
20424;BME280;10371;49.042;8.002;2023-09-19T03:58:50;99578.25;;;16.39;100.00
20424;BME280;10371;49.042;8.002;2023-09-19T03:59:50;99589.25;;;16.42;100.00
20424;BME280;10371;49.042;8.002;2023-09-19T04:00:56;99572.19;;;16.38;100.00
20424;BME280;10371;49.042;8.002;2023-09-19T04:01:57;99580.22;;;16.37;100.00
20424;BME280;10371;49.042;8.002;2023-09-19T04:02:58;99587.44;;;16.35;100.00
20424;BME280;10371;49.042;8.002;2023-09-19T04:03:58;99577.75;;;16.35;100.00
20424;BME280;10371;49.042;8.002;2023-09-19T04:04:59;99566.28;;;16.36;100.00
20424;BME280;10371;49.042;8.002;2023-09-19T04:05:59;99580.22;;;16.37;100.00
20424;BME280;10371;49.042;8.002;2023-09-19T04:06:59;99578.94;;;16.33;100.00
20424;BME280;10371;49.042;8.002;2023-09-19T04:07:59;99580.72;;;16.32;100.00
20424;BME280;10371;49.042;8.002;2023-09-19T04:09:00;99583.34;;;16.32;100.00
20424;BME280;10371;49.042;8.002;2023-09-19T04:10:02;99582.53;;;16.31;100.00
20424;BME280;10371;49.042;8.002;2023-09-19T04:11:03;99586.16;;;16.30;100.00
20424;BME280;10371;49.042;8.002;2023-09-19T04:12:04;99587.97;;;16.30;100.00
20424;BME280;10371;49.042;8.002;2023-09-19T04:13:05;99585.31;;;16.30;100.00
20424;BME280;10371;49.042;8.002;2023-09-19T04:14:06;99580.06;;;16.30;100.00
20424;BME280;10371;49.042;8.002;2023-09-19T04:15:07;99581.38;;;16.26;100.00
20424;BME280;10371;49.042;8.002;2023-09-19T04:16:08;99588.94;;;16.29;100.00
20424;BME280;10371;49.042;8.002;2023-09-19T04:17:09;99588.13;;;16.28;100.00
20424;BME280;10371;49.042;8.002;2023-09-19T04:18:10;99596.81;;;16.29;100.00
20424;BME280;10371;49.042;8.002;2023-09-19T04:19:10;99593.84;;;16.32;100.00
20424;BME280;10371;49.042;8.002;2023-09-19T04:20:11;99599.09;;;16.32;100.00
20424;BME280;10371;49.042;8.002;2023-09-19T04:21:12;99595.84;;;16.30;100.00
20424;BME280;10371;49.042;8.002;2023-09-19T04:22:12;99592.38;;;16.29;100.00
20424;BME280;10371;49.042;8.002;2023-09-19T04:23:13;99601.44;;;16.27;100.00
20424;BME280;10371;49.042;8.002;2023-09-19T04:24:13;99603.06;;;16.28;100.00
20424;BME280;10371;49.042;8.002;2023-09-19T04:25:14;99606.03;;;16.25;100.00
20424;BME280;10371;49.042;8.002;2023-09-19T04:26:14;99601.72;;;16.24;100.00
20424;BME280;10371;49.042;8.002;2023-09-19T04:27:17;99608.78;;;16.23;100.00
20424;BME280;10371;49.042;8.002;2023-09-19T04:28:18;99610.94;;;16.20;100.00
20424;BME280;10371;49.042;8.002;2023-09-19T04:29:19;99618.50;;;16.23;100.00
20424;BME280;10371;49.042;8.002;2023-09-19T04:30:20;99616.69;;;16.23;100.00
20424;BME280;10371;49.042;8.002;2023-09-19T04:31:21;99608.66;;;16.25;100.00
20424;BME280;10371;49.042;8.002;2023-09-19T04:32:22;99618.34;;;16.24;100.00
20424;BME280;10371;49.042;8.002;2023-09-19T04:33:22;99612.41;;;16.22;100.00
20424;BME280;10371;49.042;8.002;2023-09-19T04:34:22;99620.78;;;16.18;100.00
20424;BME280;10371;49.042;8.002;2023-09-19T04:35:24;99618.69;;;16.13;100.00
20424;BME280;10371;49.042;8.002;2023-09-19T04:36:25;99606.34;;;16.14;100.00
20424;BME280;10371;49.042;8.002;2023-09-19T04:37:26;99612.56;;;16.13;100.00
20424;BME280;10371;49.042;8.002;2023-09-19T04:38:26;99618.00;;;16.11;100.00
20424;BME280;10371;49.042;8.002;2023-09-19T04:39:28;99612.91;;;16.09;100.00
20424;BME280;10371;49.042;8.002;2023-09-19T04:40:28;99619.63;;;16.12;100.00
20424;BME280;10371;49.042;8.002;2023-09-19T04:41:29;99613.72;;;16.10;100.00
20424;BME280;10371;49.042;8.002;2023-09-19T04:42:30;99613.56;;;16.12;100.00
20424;BME280;10371;49.042;8.002;2023-09-19T04:43:30;99614.06;;;16.15;100.00
20424;BME280;10371;49.042;8.002;2023-09-19T04:44:30;99609.94;;;16.21;100.00
20424;BME280;10371;49.042;8.002;2023-09-19T04:45:31;99614.38;;;16.28;100.00
20424;BME280;10371;49.042;8.002;2023-09-19T04:46:31;99606.81;;;16.34;100.00
20424;BME280;10371;49.042;8.002;2023-09-19T04:47:31;99606.50;;;16.37;100.00
20424;BME280;10371;49.042;8.002;2023-09-19T04:48:32;99612.22;;;16.40;100.00
20424;BME280;10371;49.042;8.002;2023-09-19T04:49:34;99602.06;;;16.37;100.00
20424;BME280;10371;49.042;8.002;2023-09-19T04:50:35;99608.44;;;16.43;100.00
20424;BME280;10371;49.042;8.002;2023-09-19T04:51:35;99607.63;;;16.42;100.00
20424;BME280;10371;49.042;8.002;2023-09-19T04:52:36;99609.59;;;16.40;100.00
20424;BME280;10371;49.042;8.002;2023-09-19T04:53:37;99612.41;;;16.39;100.00
20424;BME280;10371;49.042;8.002;2023-09-19T04:54:37;99616.19;;;16.36;100.00
20424;BME280;10371;49.042;8.002;2023-09-19T04:55:38;99616.34;;;16.26;100.00
20424;BME280;10371;49.042;8.002;2023-09-19T04:56:38;99627.03;;;16.25;100.00
20424;BME280;10371;49.042;8.002;2023-09-19T04:57:40;99622.25;;;16.20;100.00
20424;BME280;10371;49.042;8.002;2023-09-19T04:58:40;99623.41;;;16.18;100.00
20424;BME280;10371;49.042;8.002;2023-09-19T04:59:41;99623.75;;;16.15;100.00
20424;BME280;10371;49.042;8.002;2023-09-19T05:00:41;99629.19;;;16.13;100.00
20424;BME280;10371;49.042;8.002;2023-09-19T05:01:41;99623.25;;;16.11;100.00
20424;BME280;10371;49.042;8.002;2023-09-19T05:02:42;99628.84;;;16.08;100.00
20424;BME280;10371;49.042;8.002;2023-09-19T05:03:42;99624.06;;;16.03;100.00
20424;BME280;10371;49.042;8.002;2023-09-19T05:04:43;99627.19;;;15.99;100.00
20424;BME280;10371;49.042;8.002;2023-09-19T05:05:43;99630.13;;;15.96;100.00
20424;BME280;10371;49.042;8.002;2023-09-19T05:06:44;99633.28;;;15.91;100.00
20424;BME280;10371;49.042;8.002;2023-09-19T05:07:45;99636.03;;;15.90;100.00
20424;BME280;10371;49.042;8.002;2023-09-19T05:08:46;99630.31;;;15.86;100.00
20424;BME280;10371;49.042;8.002;2023-09-19T05:09:46;99643.44;;;15.86;100.00
20424;BME280;10371;49.042;8.002;2023-09-19T05:10:47;99644.72;;;15.82;100.00
20424;BME280;10371;49.042;8.002;2023-09-19T05:11:47;99652.91;;;15.79;100.00
20424;BME280;10371;49.042;8.002;2023-09-19T05:12:48;99652.28;;;15.77;100.00
20424;BME280;10371;49.042;8.002;2023-09-19T05:13:51;99642.75;;;15.76;100.00
20424;BME280;10371;49.042;8.002;2023-09-19T05:14:53;99648.31;;;15.73;100.00
20424;BME280;10371;49.042;8.002;2023-09-19T05:15:53;99646.84;;;15.70;100.00
20424;BME280;10371;49.042;8.002;2023-09-19T05:16:53;99646.84;;;15.70;100.00
20424;BME280;10371;49.042;8.002;2023-09-19T05:17:53;99651.28;;;15.70;100.00
20424;BME280;10371;49.042;8.002;2023-09-19T05:18:55;99654.34;;;15.65;100.00
20424;BME280;10371;49.042;8.002;2023-09-19T05:19:57;99656.00;;;15.66;100.00
20424;BME280;10371;49.042;8.002;2023-09-19T05:20:58;99648.13;;;15.66;100.00
20424;BME280;10371;49.042;8.002;2023-09-19T05:21:58;99649.91;;;15.65;100.00
20424;BME280;10371;49.042;8.002;2023-09-19T05:24:00;99655.66;;;15.61;100.00
20424;BME280;10371;49.042;8.002;2023-09-19T05:25:01;99655.47;;;15.62;100.00
20424;BME280;10371;49.042;8.002;2023-09-19T05:26:04;99648.91;;;15.58;100.00
20424;BME280;10371;49.042;8.002;2023-09-19T05:27:05;99661.06;;;15.68;100.00
20424;BME280;10371;49.042;8.002;2023-09-19T05:28:08;99657.28;;;15.62;100.00
20424;BME280;10371;49.042;8.002;2023-09-19T05:29:09;99660.41;;;15.65;100.00
20424;BME280;10371;49.042;8.002;2023-09-19T05:30:09;99656.38;;;15.71;100.00
20424;BME280;10371;49.042;8.002;2023-09-19T05:31:10;99659.81;;;15.72;100.00
20424;BME280;10371;49.042;8.002;2023-09-19T05:32:11;99657.19;;;15.72;100.00
20424;BME280;10371;49.042;8.002;2023-09-19T05:33:11;99668.50;;;15.72;100.00
20424;BME280;10371;49.042;8.002;2023-09-19T05:34:12;99664.25;;;15.71;100.00
20424;BME280;10371;49.042;8.002;2023-09-19T05:35:12;99662.59;;;15.70;100.00
20424;BME280;10371;49.042;8.002;2023-09-19T05:36:13;99660.63;;;15.72;100.00
20424;BME280;10371;49.042;8.002;2023-09-19T05:37:16;99662.13;;;15.75;100.00